Time;durP1;ratioP1;P1;durP2;ratioP2;P2;SDS_P1;SDS_P2;PMS_P1;PMS_P2;Temp;Humidity;BMP_temperature;BMP_pressure;BME280_temperature;BME280_humidity;BME280_pressure;Samples;Min_cycle;Max_cycle;Signal;HPM_P1;HPM_P2
2021/05/20 00:00:15;;;;;;;70.28;46.05;;;9.50;99.90;;;;;;5070889;28;20040;-74
2021/05/20 00:02:41;;;;;;;69.68;45.30;;;9.40;99.90;;;;;;5071188;28;20420;-75
2021/05/20 00:05:07;;;;;;;61.00;42.58;;;10.00;99.90;;;;;;5058114;28;20042;-78
2021/05/20 00:07:34;;;;;;;54.22;39.03;;;9.40;99.90;;;;;;5071178;28;20119;-78
2021/05/20 00:09:59;;;;;;;52.05;36.38;;;9.40;99.90;;;;;;5070837;28;20071;-79
2021/05/20 00:12:25;;;;;;;46.72;33.97;;;9.40;99.90;;;;;;5071155;28;20465;-79
2021/05/20 00:14:51;;;;;;;44.08;32.28;;;9.30;99.90;;;;;;5087667;28;20043;-78
2021/05/20 00:17:17;;;;;;;42.85;31.90;;;9.30;99.90;;;;;;5071885;28;20066;-78
2021/05/20 00:19:43;;;;;;;41.20;29.80;;;9.50;99.90;;;;;;5072389;28;20476;-79
2021/05/20 00:22:09;;;;;;;36.45;27.52;;;9.40;99.90;;;;;;5071938;28;20043;-79
2021/05/20 00:24:35;;;;;;;37.08;27.80;;;9.40;99.90;;;;;;5072139;28;20036;-79
2021/05/20 00:27:00;;;;;;;35.17;24.73;;;9.40;99.90;;;;;;5072007;28;20041;-79
2021/05/20 00:29:26;;;;;;;31.63;25.35;;;9.30;99.90;;;;;;5087499;28;20089;-79
2021/05/20 00:31:52;;;;;;;31.23;24.50;;;9.40;99.90;;;;;;5072114;28;20067;-79
2021/05/20 00:34:18;;;;;;;28.83;23.67;;;9.30;99.90;;;;;;5071822;28;20099;-79
2021/05/20 00:36:44;;;;;;;34.63;23.88;;;9.20;99.90;;;;;;5072069;28;20449;-79
2021/05/20 00:39:10;;;;;;;35.80;24.95;;;9.80;99.90;;;;;;5070571;28;20131;-79
2021/05/20 00:41:36;;;;;;;32.58;24.63;;;9.30;99.90;;;;;;5087358;28;20119;-78
2021/05/20 00:44:02;;;;;;;31.55;25.48;;;9.20;99.90;;;;;;5070397;28;20119;-79
2021/05/20 00:46:29;;;;;;;31.13;25.25;;;9.20;99.90;;;;;;5087288;28;20036;-79
2021/05/20 00:48:54;;;;;;;34.00;25.50;;;9.10;99.90;;;;;;5071767;28;20484;-79
2021/05/20 00:51:20;;;;;;;31.75;25.02;;;9.10;99.90;;;;;;5071160;28;20063;-79
2021/05/20 00:53:50;;;;;;;34.15;24.88;;;9.10;99.90;;;;;;5071765;28;20504;-79
2021/05/20 00:56:21;;;;;;;27.58;22.75;;;9.10;99.90;;;;;;5071682;28;20044;-79
2021/05/20 00:58:48;;;;;;;29.17;22.08;;;9.10;99.90;;;;;;5069008;28;20037;-79
2021/05/20 01:01:15;;;;;;;27.25;21.05;;;9.10;99.90;;;;;;5087195;28;20110;-79
2021/05/20 01:03:41;;;;;;;25.63;21.20;;;9.00;99.90;;;;;;5071684;28;20040;-79
2021/05/20 01:06:07;;;;;;;25.73;21.23;;;9.00;99.90;;;;;;5074520;28;20086;-74
2021/05/20 01:08:33;;;;;;;24.77;20.38;;;8.90;99.90;;;;;;5091026;28;20059;-74
2021/05/20 01:11:00;;;;;;;26.42;20.83;;;8.90;99.90;;;;;;5074951;28;20480;-74
2021/05/20 01:13:27;;;;;;;23.15;19.85;;;8.90;99.90;;;;;;5090793;28;20040;-74
2021/05/20 01:15:53;;;;;;;27.55;20.33;;;8.90;99.90;;;;;;5074963;28;20464;-75
2021/05/20 01:18:19;;;;;;;25.85;20.02;;;8.90;99.90;;;;;;5074983;28;20090;-74
2021/05/20 01:20:45;;;;;;;27.00;19.02;;;9.00;99.90;;;;;;5090677;28;20543;-74
2021/05/20 01:23:12;;;;;;;27.55;21.02;;;8.90;99.90;;;;;;5074889;28;20044;-75
2021/05/20 01:25:40;;;;;;;26.63;19.83;;;8.90;99.90;;;;;;5090556;28;20435;-74
2021/05/20 01:28:20;;;;;;;23.60;19.15;;;8.90;99.90;;;;;;5074666;28;20119;-78
2021/05/20 01:30:48;;;;;;;22.65;18.27;;;8.90;99.90;;;;;;5074706;28;20064;-79
2021/05/20 01:33:14;;;;;;;23.17;18.20;;;8.90;99.90;;;;;;5073229;28;20037;-79
2021/05/20 01:35:40;;;;;;;22.10;18.98;;;9.00;99.90;;;;;;5074815;28;20107;-79
2021/05/20 01:40:58;;;;;;;21.95;18.77;;;8.90;99.90;;;;;;5074679;28;20396;-78
2021/05/20 01:43:24;;;;;;;23.52;19.42;;;8.90;99.90;;;;;;5089999;28;20032;-79
2021/05/20 01:45:57;;;;;;;26.20;19.52;;;8.90;99.90;;;;;;5074644;28;20406;-79
2021/05/20 01:48:27;;;;;;;23.73;19.65;;;8.90;99.90;;;;;;5090091;28;20130;-79
2021/05/20 01:50:59;;;;;;;23.45;18.63;;;8.80;99.90;;;;;;5074253;28;20043;-74
2021/05/20 01:53:25;;;;;;;22.60;18.73;;;8.80;99.90;;;;;;5060883;28;20473;-74
2021/05/20 01:55:51;;;;;;;24.95;19.73;;;8.80;99.90;;;;;;5073887;28;20074;-74
2021/05/20 01:58:17;;;;;;;26.00;20.33;;;8.80;99.90;;;;;;5056421;28;20036;-74
2021/05/20 02:00:42;;;;;;;26.05;18.83;;;8.70;99.90;;;;;;5056401;28;20134;-75
2021/05/20 02:03:12;;;;;;;25.58;19.90;;;8.60;99.90;;;;;;5072986;28;20041;-74
2021/05/20 02:05:38;;;;;;;24.52;19.42;;;8.60;99.90;;;;;;5074020;28;20542;-74
2021/05/20 02:08:04;;;;;;;26.45;20.02;;;8.60;99.90;;;;;;5074247;28;20473;-74
2021/05/20 02:10:36;;;;;;;24.05;20.15;;;8.60;99.90;;;;;;5056698;28;20037;-74
2021/05/20 02:13:02;;;;;;;23.63;19.48;;;8.60;99.90;;;;;;5072817;28;20124;-74
2021/05/20 02:15:33;;;;;;;25.75;19.98;;;8.70;99.90;;;;;;5073557;28;20043;-75
2021/05/20 02:18:06;;;;;;;26.55;21.02;;;8.60;99.90;;;;;;5073744;28;20040;-75
2021/05/20 02:20:33;;;;;;;25.23;21.52;;;8.60;99.90;;;;;;5073875;28;20056;-74
2021/05/20 02:23:02;;;;;;;25.75;20.10;;;8.70;99.90;;;;;;5089403;28;20032;-74
2021/05/20 02:25:28;;;;;;;28.70;20.60;;;8.60;99.90;;;;;;5073776;28;20491;-74
2021/05/20 02:27:54;;;;;;;24.85;20.65;;;8.60;99.90;;;;;;5073749;28;20059;-74
2021/05/20 02:30:20;;;;;;;23.15;19.73;;;8.60;99.90;;;;;;5072409;28;20472;-74
2021/05/20 02:32:46;;;;;;;24.00;19.83;;;8.60;99.90;;;;;;5072447;28;20036;-74
2021/05/20 02:35:14;;;;;;;25.25;19.55;;;8.60;99.90;;;;;;5073564;28;20071;-74
2021/05/20 02:37:41;;;;;;;26.67;20.23;;;8.70;99.90;;;;;;5089167;28;20051;-74
2021/05/20 02:40:12;;;;;;;23.25;19.98;;;8.60;99.90;;;;;;5088615;28;20040;-74
2021/05/20 02:42:39;;;;;;;25.65;19.52;;;8.60;99.90;;;;;;5073628;28;20415;-74
2021/05/20 02:45:07;;;;;;;24.30;19.45;;;8.50;99.90;;;;;;5073175;28;20032;-74
2021/05/20 02:47:34;;;;;;;23.85;20.55;;;8.50;99.90;;;;;;5073264;28;20032;-74
2021/05/20 02:50:03;;;;;;;24.92;19.60;;;8.50;99.90;;;;;;5088661;28;20067;-74
2021/05/20 02:52:29;;;;;;;27.02;20.63;;;8.50;99.90;;;;;;5073094;28;20063;-74
2021/05/20 02:55:03;;;;;;;24.20;20.50;;;8.50;99.90;;;;;;5088678;28;20035;-74
2021/05/20 02:57:33;;;;;;;26.13;20.83;;;8.60;99.90;;;;;;5071813;28;20028;-74
2021/05/20 02:59:59;;;;;;;29.35;22.17;;;8.60;99.90;;;;;;5088835;28;20119;-74
2021/05/20 03:02:25;;;;;;;25.33;21.25;;;8.60;99.90;;;;;;5055289;28;20143;-75
2021/05/20 03:04:51;;;;;;;24.90;21.30;;;8.60;99.90;;;;;;5072972;28;20040;-74
2021/05/20 03:07:18;;;;;;;23.52;19.92;;;8.70;99.90;;;;;;5072531;28;20040;-74
2021/05/20 03:09:43;;;;;;;28.88;22.25;;;8.60;99.90;;;;;;5072778;28;20054;-74
2021/05/20 03:12:10;;;;;;;27.75;22.00;;;8.70;99.90;;;;;;5072800;28;20036;-74
2021/05/20 03:14:38;;;;;;;25.38;22.10;;;8.60;99.90;;;;;;5088051;28;20107;-74
2021/05/20 03:17:11;;;;;;;24.67;21.05;;;8.60;99.90;;;;;;5071850;28;20127;-74
2021/05/20 03:19:42;;;;;;;25.20;21.10;;;8.60;99.90;;;;;;5055663;28;20039;-74
2021/05/20 03:22:11;;;;;;;25.20;21.33;;;8.60;99.90;;;;;;5072830;28;20145;-74
2021/05/20 03:24:38;;;;;;;24.02;20.10;;;8.60;99.90;;;;;;5071638;28;20373;-75
2021/05/20 03:27:06;;;;;;;24.02;20.63;;;8.80;99.90;;;;;;5071245;28;20040;-74
2021/05/20 03:29:32;;;;;;;24.17;20.45;;;8.60;99.90;;;;;;5088273;28;20499;-74
2021/05/20 03:31:59;;;;;;;24.38;20.25;;;8.60;99.90;;;;;;5088131;28;20119;-74
2021/05/20 03:34:25;;;;;;;24.45;20.08;;;8.50;99.90;;;;;;5072524;28;20060;-74
2021/05/20 03:36:51;;;;;;;24.70;19.67;;;8.50;99.90;;;;;;5071405;28;20373;-74
2021/05/20 03:39:18;;;;;;;27.88;20.63;;;8.50;99.90;;;;;;5071462;28;20033;-74
2021/05/20 03:41:44;;;;;;;25.00;20.35;;;8.60;99.90;;;;;;5072335;28;20495;-74
2021/05/20 03:44:12;;;;;;;25.30;21.00;;;8.50;99.90;;;;;;5087704;28;20040;-74
2021/05/20 03:46:38;;;;;;;24.92;19.65;;;8.40;99.90;;;;;;5071152;28;20430;-74
2021/05/20 03:49:04;;;;;;;22.95;20.10;;;8.40;99.90;;;;;;5071433;28;20028;-74
2021/05/20 03:51:40;;;;;;;24.13;20.25;;;8.40;99.90;;;;;;5070797;28;20049;-78
2021/05/20 03:54:13;;;;;;;27.23;20.63;;;8.40;99.90;;;;;;5072355;28;20032;-78
2021/05/20 03:56:39;;;;;;;24.00;19.60;;;8.40;99.90;;;;;;5087964;28;20037;-79
2021/05/20 03:59:05;;;;;;;23.23;20.70;;;8.40;99.90;;;;;;5087954;28;20461;-79
2021/05/20 04:01:30;;;;;;;23.42;19.85;;;8.40;99.90;;;;;;5072389;28;20068;-79
2021/05/20 04:03:56;;;;;;;26.45;20.67;;;8.40;99.90;;;;;;5071121;28;20523;-79
2021/05/20 04:06:23;;;;;;;23.75;20.40;;;8.40;99.90;;;;;;5070944;28;20037;-78
2021/05/20 04:08:54;;;;;;;24.08;20.33;;;8.40;99.90;;;;;;5087830;28;20370;-79
2021/05/20 04:11:20;;;;;;;24.88;21.23;;;9.00;99.90;;;;;;5070853;28;20108;-79
2021/05/20 04:13:45;;;;;;;27.83;21.65;;;8.40;99.90;;;;;;5071038;28;20060;-79
2021/05/20 04:16:14;;;;;;;24.35;20.55;;;8.50;99.90;;;;;;5087561;28;20472;-79
2021/05/20 04:18:41;;;;;;;23.17;19.92;;;8.50;99.90;;;;;;5072309;28;20043;-79
2021/05/20 04:21:07;;;;;;;28.95;21.42;;;8.50;99.90;;;;;;5087577;28;20125;-79
2021/05/20 04:23:33;;;;;;;24.58;21.08;;;8.60;99.90;;;;;;5072093;28;20037;-79
2021/05/20 04:26:00;;;;;;;25.08;21.67;;;8.50;99.90;;;;;;5070882;28;20099;-79
2021/05/20 04:28:28;;;;;;;26.30;21.83;;;8.60;99.90;;;;;;5072272;28;20033;-79
2021/05/20 04:30:55;;;;;;;25.92;22.92;;;8.60;99.90;;;;;;5070727;28;20093;-78
2021/05/20 04:33:21;;;;;;;24.75;21.13;;;8.70;99.90;;;;;;5087369;28;20064;-74
2021/05/20 04:35:47;;;;;;;25.15;21.45;;;8.70;99.90;;;;;;5072012;28;20044;-75
2021/05/20 04:38:13;;;;;;;24.05;21.45;;;8.80;99.90;;;;;;5071809;28;20044;-74
2021/05/20 04:40:39;;;;;;;23.42;20.83;;;8.80;99.90;;;;;;5075843;28;20138;-74
2021/05/20 04:43:06;;;;;;;25.35;21.75;;;8.90;99.90;;;;;;5043593;28;20055;-74
2021/05/20 04:45:35;;;;;;;25.15;22.15;;;8.90;99.90;;;;;;5075643;28;20037;-74
2021/05/20 04:48:04;;;;;;;25.83;20.30;;;8.90;99.90;;;;;;5075461;28;20039;-74
2021/05/20 04:50:30;;;;;;;25.58;21.15;;;8.90;99.90;;;;;;5091045;28;20036;-75
2021/05/20 04:52:56;;;;;;;24.95;20.95;;;8.90;99.90;;;;;;5090913;28;20443;-74
2021/05/20 04:55:22;;;;;;;23.15;20.27;;;8.90;99.90;;;;;;5075305;28;20033;-74
2021/05/20 04:57:48;;;;;;;23.98;21.45;;;9.00;99.90;;;;;;5075333;28;20043;-74
2021/05/20 05:00:14;;;;;;;24.90;22.23;;;9.00;99.90;;;;;;5074137;28;20116;-75
2021/05/20 05:02:41;;;;;;;25.00;22.13;;;9.10;99.90;;;;;;5074263;28;20115;-74
2021/05/20 05:05:10;;;;;;;24.52;21.20;;;9.20;99.90;;;;;;5075266;28;20487;-74
2021/05/20 05:07:36;;;;;;;22.42;20.05;;;9.30;99.90;;;;;;5090885;28;20120;-78
2021/05/20 05:10:06;;;;;;;22.63;20.20;;;9.90;99.90;;;;;;5075077;28;20082;-78
2021/05/20 05:12:32;;;;;;;23.13;20.50;;;9.60;99.90;;;;;;5073879;28;20044;-78
2021/05/20 05:14:58;;;;;;;22.80;20.38;;;9.70;99.90;;;;;;5075049;28;20032;-78
2021/05/20 05:17:24;;;;;;;22.00;19.48;;;9.70;99.90;;;;;;5075077;28;20055;-79
2021/05/20 05:19:50;;;;;;;23.05;19.00;;;9.80;99.90;;;;;;5090644;28;20045;-75
2021/05/20 05:22:16;;;;;;;23.80;18.98;;;9.90;99.90;;;;;;5073860;28;20101;-74
2021/05/20 05:24:42;;;;;;;27.65;19.95;;;10.10;99.90;;;;;;5074805;28;20040;-75
2021/05/20 05:27:08;;;;;;;20.58;18.02;;;10.20;99.90;;;;;;5073721;28;20082;-75
2021/05/20 05:29:37;;;;;;;23.48;18.15;;;10.30;99.90;;;;;;5074485;28;20040;-75
2021/05/20 05:32:04;;;;;;;19.98;16.85;;;10.40;99.90;;;;;;5074912;28;20404;-79
2021/05/20 05:34:29;;;;;;;18.48;16.42;;;10.40;99.90;;;;;;5073403;28;20086;-79
2021/05/20 05:36:55;;;;;;;18.83;15.63;;;10.90;99.90;;;;;;5073699;28;20477;-79
2021/05/20 05:39:24;;;;;;;21.13;16.98;;;10.60;99.90;;;;;;5074831;28;20041;-74
2021/05/20 05:41:50;;;;;;;20.83;16.15;;;10.70;99.90;;;;;;5073192;28;20045;-75
2021/05/20 05:44:16;;;;;;;20.38;15.40;;;10.70;99.90;;;;;;5073386;28;20408;-74
2021/05/20 05:46:43;;;;;;;20.25;15.25;;;10.90;99.90;;;;;;5074391;28;20035;-74
2021/05/20 05:49:13;;;;;;;17.65;14.27;;;10.90;99.90;;;;;;5073411;28;20039;-74
2021/05/20 05:51:50;;;;;;;15.70;13.65;;;10.90;99.90;;;;;;5088883;28;20124;-74
2021/05/20 05:54:23;;;;;;;17.65;13.63;;;11.00;99.90;;;;;;5074390;28;20435;-75
2021/05/20 05:56:50;;;;;;;17.33;15.05;;;11.00;99.90;;;;;;5073000;28;20032;-75
2021/05/20 05:59:16;;;;;;;17.05;14.73;;;11.00;99.90;;;;;;5073095;28;20036;-75
2021/05/20 06:01:42;;;;;;;19.08;14.93;;;11.10;99.90;;;;;;5074098;28;20395;-75
2021/05/20 06:04:09;;;;;;;18.77;16.75;;;11.10;99.90;;;;;;5074151;28;20499;-75
2021/05/20 06:06:44;;;;;;;16.08;14.45;;;11.10;99.90;;;;;;5074146;28;20032;-75
2021/05/20 06:09:10;;;;;;;;;;;11.10;99.90;;;;;;5073166;28;20095;-75
2021/05/20 06:11:36;;;;;;;16.08;14.45;;;11.10;99.90;;;;;;5072918;28;19955;-75
2021/05/20 06:14:05;;;;;;;16.27;14.57;;;11.20;99.90;;;;;;5089406;28;20037;-75
2021/05/20 06:16:35;;;;;;;18.80;14.50;;;11.20;99.90;;;;;;5089794;28;20036;-75
2021/05/20 06:19:02;;;;;;;17.27;14.15;;;11.30;99.90;;;;;;5074001;28;20419;-75
2021/05/20 06:21:28;;;;;;;19.25;14.50;;;11.30;99.90;;;;;;5089435;28;20070;-75
2021/05/20 06:23:54;;;;;;;17.90;13.70;;;11.40;99.90;;;;;;5073986;28;20384;-75
2021/05/20 06:26:20;;;;;;;16.10;13.25;;;11.40;99.90;;;;;;5089189;28;20029;-75
2021/05/20 06:28:46;;;;;;;17.33;12.90;;;11.40;99.90;;;;;;5073716;28;20469;-75
2021/05/20 06:31:12;;;;;;;16.38;13.15;;;11.50;99.90;;;;;;5089155;28;20040;-75
2021/05/20 06:33:38;;;;;;;15.77;12.80;;;11.50;99.90;;;;;;5072488;28;20120;-75
2021/05/20 06:36:04;;;;;;;16.63;13.90;;;11.60;99.90;;;;;;5072211;28;20116;-75
2021/05/20 06:38:33;;;;;;;16.10;14.27;;;11.50;99.90;;;;;;5072074;28;20524;-75
2021/05/20 06:41:05;;;;;;;22.77;14.23;;;11.50;99.90;;;;;;5072277;28;20062;-75
2021/05/20 06:43:30;;;;;;;16.52;13.88;;;11.50;99.90;;;;;;5072950;28;20036;-75
2021/05/20 06:45:56;;;;;;;12.07;10.80;;;11.50;99.90;;;;;;5073335;28;20040;-75
2021/05/20 06:48:22;;;;;;;16.98;11.40;;;11.60;99.90;;;;;;5071967;28;20028;-75
2021/05/20 06:50:48;;;;;;;16.67;11.73;;;11.60;99.90;;;;;;5073089;28;20089;-75
2021/05/20 06:53:18;;;;;;;13.27;11.93;;;11.70;99.90;;;;;;5088504;28;20515;-75
2021/05/20 06:55:44;;;;;;;15.90;12.77;;;11.70;99.90;;;;;;5073115;28;20047;-79
2021/05/20 07:00:40;;;;;;;16.58;13.13;;;11.80;99.90;;;;;;5071701;28;20090;-75
2021/05/20 07:03:16;;;;;;;13.88;12.43;;;11.90;99.90;;;;;;5072931;28;20052;-75
2021/05/20 07:05:42;;;;;;;14.60;12.90;;;12.00;99.90;;;;;;5071514;28;20089;-79
2021/05/20 07:08:10;;;;;;;16.80;13.25;;;12.00;99.90;;;;;;5073032;28;20032;-79
2021/05/20 07:10:36;;;;;;;13.43;11.95;;;12.00;99.90;;;;;;5072778;28;20119;-79
2021/05/20 07:13:04;;;;;;;13.05;9.90;;;12.00;99.90;;;;;;5071725;28;20450;-79
2021/05/20 07:15:37;;;;;;;13.88;10.10;;;12.00;99.90;;;;;;5071726;28;20100;-79
2021/05/20 07:18:06;;;;;;;11.70;9.95;;;12.00;99.90;;;;;;5072738;28;20028;-79
2021/05/20 07:20:32;;;;;;;12.73;10.18;;;12.00;99.90;;;;;;5071622;28;20071;-79
2021/05/20 07:23:08;;;;;;;12.57;9.65;;;12.70;99.90;;;;;;5071385;28;20452;-79
2021/05/20 07:25:34;;;;;;;16.58;9.85;;;12.10;99.90;;;;;;5072756;28;20048;-80
2021/05/20 07:28:03;;;;;;;15.15;9.90;;;12.10;99.90;;;;;;5071387;28;20028;-75
2021/05/20 07:30:30;;;;;;;14.18;9.50;;;12.20;99.90;;;;;;5072664;28;20075;-79
2021/05/20 07:32:56;;;;;;;13.52;10.07;;;12.20;99.90;;;;;;5072050;28;20476;-75
2021/05/20 07:35:23;;;;;;;11.75;8.73;;;12.20;99.90;;;;;;5072433;28;20063;-75
2021/05/20 07:37:48;;;;;;;11.73;9.13;;;12.20;99.90;;;;;;5072712;28;20036;-74
2021/05/20 07:40:21;;;;;;;11.82;8.65;;;12.20;99.90;;;;;;5058511;28;20036;-78
2021/05/20 07:42:51;;;;;;;10.00;8.43;;;11.80;99.90;;;;;;5072497;28;20094;-75
2021/05/20 07:45:23;;;;;;;10.32;8.75;;;12.20;99.90;;;;;;5072367;28;20043;-79
2021/05/20 07:47:51;;;;;;;13.63;9.60;;;12.30;99.90;;;;;;5072644;28;20087;-75
2021/05/20 07:50:18;;;;;;;11.55;9.32;;;12.30;99.90;;;;;;5071016;28;20502;-75
2021/05/20 07:52:46;;;;;;;11.23;9.32;;;12.40;99.90;;;;;;5071213;28;20061;-79
2021/05/20 07:55:12;;;;;;;11.18;9.18;;;12.40;99.90;;;;;;5072388;28;20062;-75
2021/05/20 07:57:38;;;;;;;11.93;7.50;;;12.40;99.90;;;;;;5072605;28;20186;-79
2021/05/20 08:00:08;;;;;;;14.07;6.20;;;12.30;99.90;;;;;;5071212;28;20137;-79
2021/05/20 08:05:08;;;;;;;9.05;6.22;;;12.30;99.90;;;;;;5071193;28;20060;-75
2021/05/20 08:12:48;;;;;;;8.00;5.72;;;12.30;99.90;;;;;;5072197;28;20032;-75
2021/05/20 08:15:14;;;;;;;9.88;6.40;;;12.20;99.90;;;;;;5075905;28;20041;-79
2021/05/20 08:17:52;;;;;;;8.75;5.28;;;12.10;99.90;;;;;;5075308;28;20056;-75
2021/05/20 08:20:18;;;;;;;10.07;4.90;;;11.40;99.90;;;;;;5058756;28;20511;-79
2021/05/20 08:22:44;;;;;;;11.13;5.38;;;12.40;99.90;;;;;;5075048;28;20115;-75
2021/05/20 08:25:11;;;;;;;8.05;4.93;;;12.50;99.90;;;;;;5074857;28;20048;-75
2021/05/20 08:27:37;;;;;;;8.27;4.57;;;12.50;99.90;;;;;;5076042;28;20036;-76
2021/05/20 08:30:08;;;;;;;7.85;4.68;;;12.60;99.90;;;;;;5058160;28;20045;-75
2021/05/20 08:32:37;;;;;;;6.00;4.32;;;12.70;99.90;;;;;;5074823;28;20036;-79
2021/05/20 08:35:04;;;;;;;7.30;4.32;;;12.80;99.90;;;;;;5074683;28;20029;-79
2021/05/20 08:37:30;;;;;;;9.43;4.75;;;12.90;99.90;;;;;;5076050;28;20388;-79
2021/05/20 08:39:56;;;;;;;9.00;4.75;;;12.90;99.90;;;;;;5074697;28;20075;-79
2021/05/20 08:42:25;;;;;;;9.25;5.35;;;13.00;99.90;;;;;;5075773;28;20036;-79
2021/05/20 08:44:51;;;;;;;6.70;5.63;;;13.00;99.90;;;;;;5075569;28;20082;-75
2021/05/20 08:47:19;;;;;;;10.05;5.82;;;13.00;99.90;;;;;;5074492;28;20041;-79
2021/05/20 08:49:48;;;;;;;4.90;3.83;;;13.10;99.90;;;;;;5075832;28;20085;-79
2021/05/20 08:52:15;;;;;;;6.38;3.67;;;13.20;99.90;;;;;;5075576;28;20492;-79
2021/05/20 08:54:43;;;;;;;4.88;3.22;;;13.20;99.90;;;;;;5074511;28;20514;-75
2021/05/20 08:57:12;;;;;;;8.23;3.47;;;13.20;99.90;;;;;;5074570;28;20037;-79
2021/05/20 08:59:41;;;;;;;4.30;3.38;;;13.20;99.90;;;;;;5075629;28;20040;-78
2021/05/20 09:02:09;;;;;;;6.97;3.33;;;13.10;99.90;;;;;;5075337;28;20094;-79
2021/05/20 09:04:35;;;;;;;6.80;3.53;;;13.20;99.90;;;;;;5074173;28;20037;-75
2021/05/20 09:07:07;;;;;;;6.30;3.53;;;13.30;99.90;;;;;;5075167;28;20043;-75
2021/05/20 09:09:36;;;;;;;4.45;3.58;;;13.40;99.90;;;;;;5075216;28;20037;-75
2021/05/20 09:12:03;;;;;;;6.53;3.08;;;14.20;99.90;;;;;;5075360;28;20044;-75
2021/05/20 09:14:33;;;;;;;5.80;3.92;;;13.50;99.90;;;;;;5076067;28;20499;-76
2021/05/20 09:17:14;;;;;;;5.75;3.42;;;13.60;99.90;;;;;;5075182;28;20112;-78
2021/05/20 09:19:43;;;;;;;6.95;4.30;;;13.50;99.90;;;;;;5075178;28;20091;-79
2021/05/20 09:22:16;;;;;;;6.80;3.72;;;13.50;99.90;;;;;;5075174;28;20060;-79
2021/05/20 09:24:57;;;;;;;4.78;2.92;;;13.30;99.90;;;;;;5073256;28;20373;-79
2021/05/20 09:27:41;;;;;;;7.20;2.42;;;13.60;99.90;;;;;;5056988;28;20115;-79
2021/05/20 09:30:32;;;;;;;3.35;2.53;;;13.50;99.90;;;;;;5075015;28;20488;-75
2021/05/20 09:33:09;;;;;;;8.15;3.22;;;13.50;99.90;;;;;;5074663;28;20434;-75
2021/05/20 09:35:48;;;;;;;5.00;3.30;;;13.80;99.90;;;;;;5074891;28;20473;-75
2021/05/20 09:38:21;;;;;;;5.25;3.13;;;14.00;99.90;;;;;;5074682;28;20586;-75
2021/05/20 09:40:50;;;;;;;5.07;2.85;;;14.10;99.90;;;;;;5074845;28;20036;-75
2021/05/20 09:43:21;;;;;;;4.45;3.08;;;14.20;99.90;;;;;;5074504;28;20036;-79
2021/05/20 09:45:52;;;;;;;7.45;3.58;;;14.30;99.90;;;;;;5074432;28;20089;-75
2021/05/20 09:48:21;;;;;;;6.07;3.10;;;14.30;99.90;;;;;;5075271;28;20044;-75
2021/05/20 09:50:51;;;;;;;5.85;3.05;;;14.30;99.90;;;;;;5073266;28;20067;-75
2021/05/20 09:53:22;;;;;;;6.30;2.80;;;14.30;99.90;;;;;;5073814;28;20052;-81
2021/05/20 09:56:01;;;;;;;3.92;2.88;;;14.40;99.90;;;;;;5048473;28;20090;-85
2021/05/20 09:58:36;;;;;;;7.75;2.95;;;14.50;99.90;;;;;;5074651;28;20036;-77
2021/05/20 10:01:16;;;;;;;6.15;3.22;;;14.50;99.90;;;;;;5072054;28;20563;-74
2021/05/20 10:03:55;;;;;;;5.75;3.15;;;14.50;99.90;;;;;;5073374;28;20445;-85
2021/05/20 10:06:42;;;;;;;6.32;2.97;;;14.30;99.90;;;;;;5074324;28;20029;-85
2021/05/20 10:09:16;;;;;;;6.88;3.17;;;14.20;99.90;;;;;;5073429;28;20047;-84
2021/05/20 10:12:02;;;;;;;4.63;2.50;;;14.00;99.90;;;;;;5071380;28;20062;-87
2021/05/20 10:14:40;;;;;;;3.58;2.08;;;14.10;99.90;;;;;;5072813;28;20036;-84
2021/05/20 10:17:07;;;;;;;5.32;2.13;;;14.20;99.90;;;;;;5057479;28;20127;-82
2021/05/20 10:19:45;;;;;;;5.03;2.08;;;14.40;99.90;;;;;;5071955;28;20040;-85
2021/05/20 10:22:17;;;;;;;5.05;2.42;;;14.50;99.90;;;;;;5056901;28;20044;-85
2021/05/20 10:24:48;;;;;;;3.77;2.20;;;14.60;99.80;;;;;;5055447;28;20488;-84
2021/05/20 10:27:15;;;;;;;5.82;2.13;;;14.60;99.90;;;;;;5071305;28;20036;-76
2021/05/20 10:29:41;;;;;;;6.80;2.10;;;14.70;99.90;;;;;;5067807;28;20036;-81
2021/05/20 10:32:08;;;;;;;3.33;1.95;;;14.70;99.70;;;;;;5056016;28;20040;-81
2021/05/20 10:34:54;;;;;;;2.92;2.00;;;14.70;99.70;;;;;;5072815;28;20036;-81
2021/05/20 10:37:26;;;;;;;5.38;1.98;;;14.80;99.90;;;;;;5073199;28;20033;-81
2021/05/20 10:39:54;;;;;;;3.08;1.40;;;14.80;99.90;;;;;;5067890;28;20114;-85
2021/05/20 10:42:44;;;;;;;4.25;1.48;;;14.80;98.80;;;;;;5060802;28;20705;-82
2021/05/20 10:45:20;;;;;;;2.63;1.52;;;14.50;97.30;;;;;;5062567;28;20082;-81
2021/05/20 10:48:18;;;;;;;3.13;1.80;;;14.50;98.10;;;;;;5059937;28;20047;-79
2021/05/20 10:50:53;;;;;;;4.63;1.50;;;14.40;99.20;;;;;;5072607;28;21696;-81
2021/05/20 10:53:46;;;;;;;6.25;1.65;;;14.40;98.30;;;;;;5053603;28;20052;-80
2021/05/20 10:56:12;;;;;;;3.30;1.60;;;14.40;97.40;;;;;;5085046;28;20036;-83
2021/05/20 10:58:38;;;;;;;2.35;1.30;;;14.50;98.90;;;;;;5055968;28;20472;-82
2021/05/20 11:01:05;;;;;;;4.35;1.35;;;14.60;98.50;;;;;;5059299;28;20052;-82
2021/05/20 11:03:46;;;;;;;4.28;1.50;;;14.90;98.30;;;;;;5059795;28;20067;-83
2021/05/20 11:06:13;;;;;;;3.17;1.85;;;15.00;98.30;;;;;;5051487;28;20044;-80
2021/05/20 11:08:39;;;;;;;7.28;2.17;;;15.00;98.20;;;;;;5058195;28;20040;-80
2021/05/20 11:11:11;;;;;;;4.65;2.47;;;15.20;98.60;;;;;;5064779;28;20033;-81
2021/05/20 11:13:45;;;;;;;7.63;2.65;;;15.20;98.60;;;;;;5058017;28;20068;-82
2021/05/20 11:16:14;;;;;;;4.43;2.47;;;15.30;99.20;;;;;;5056572;28;20460;-81
2021/05/20 11:18:47;;;;;;;6.38;2.80;;;15.50;99.50;;;;;;5062512;28;20049;-82
2021/05/20 11:21:20;;;;;;;7.22;3.00;;;15.60;99.60;;;;;;5084469;28;20068;-82
2021/05/20 11:23:46;;;;;;;8.65;2.38;;;15.60;99.30;;;;;;5058371;28;20037;-81
2021/05/20 11:26:22;;;;;;;3.50;2.25;;;15.70;98.90;;;;;;5061186;28;20041;-82
2021/05/20 11:28:58;;;;;;;;;;;15.70;98.20;;;;;;5056656;28;20072;-82
2021/05/20 11:31:27;;;;;;;4.30;2.00;;;15.70;98.30;;;;;;5055273;28;20319;-82
2021/05/20 11:36:51;;;;;;;6.10;2.00;;;15.80;98.90;;;;;;5055680;28;20039;-80
2021/05/20 11:39:19;;;;;;;3.13;1.67;;;15.90;99.10;;;;;;5060571;28;20041;-80
2021/05/20 11:41:50;;;;;;;4.78;1.60;;;16.00;98.70;;;;;;5058691;28;20455;-80
2021/05/20 11:44:21;;;;;;;5.38;1.55;;;16.00;98.60;;;;;;5063517;28;21533;-80
2021/05/20 11:47:08;;;;;;;2.97;1.70;;;16.00;98.00;;;;;;5073365;28;20040;-82
2021/05/20 11:49:36;;;;;;;4.65;1.45;;;16.10;93.40;;;;;;5039366;28;20122;-80
2021/05/20 11:52:09;;;;;;;2.08;1.10;;;16.10;96.90;;;;;;5062371;28;20077;-82
2021/05/20 11:54:46;;;;;;;6.55;1.15;;;16.10;92.90;;;;;;5050081;28;20037;-81
2021/05/20 11:57:17;;;;;;;3.80;1.67;;;16.10;95.00;;;;;;5053820;28;21785;-81
2021/05/20 11:59:50;;;;;;;4.55;1.20;;;16.20;95.90;;;;;;5065688;28;20043;-82
2021/05/20 12:02:23;;;;;;;5.85;1.08;;;16.40;95.40;;;;;;5051966;28;20028;-82
2021/05/20 12:05:03;;;;;;;5.18;1.48;;;16.50;95.10;;;;;;5055993;28;20028;-82
2021/05/20 12:07:37;;;;;;;3.00;1.48;;;16.50;92.20;;;;;;5053216;28;20037;-81
2021/05/20 12:10:08;;;;;;;2.97;1.00;;;16.50;92.50;;;;;;5066512;28;20037;-82
2021/05/20 12:12:37;;;;;;;2.70;1.02;;;16.50;93.40;;;;;;5067996;28;20032;-81
2021/05/20 12:15:22;;;;;;;2.47;1.10;;;16.50;93.90;;;;;;5064522;28;20044;-82
2021/05/20 12:17:48;;;;;;;3.13;1.15;;;16.60;92.60;;;;;;5060434;28;20465;-77
2021/05/20 12:20:19;;;;;;;4.10;1.20;;;16.40;93.10;;;;;;5059896;28;20095;-80
2021/05/20 12:22:45;;;;;;;2.92;1.20;;;16.40;93.20;;;;;;5057023;28;20496;-80
2021/05/20 12:25:14;;;;;;;8.20;1.50;;;16.40;93.30;;;;;;5049294;28;20041;-78
2021/05/20 12:27:40;;;;;;;4.03;1.33;;;16.30;92.10;;;;;;5059131;28;20463;-76
2021/05/20 12:30:11;;;;;;;3.35;1.10;;;16.20;92.60;;;;;;5053755;28;20431;-79
2021/05/20 12:32:47;;;;;;;5.45;1.55;;;15.90;92.80;;;;;;5053281;28;20048;-75
2021/05/20 12:35:21;;;;;;;4.03;1.35;;;16.20;93.50;;;;;;5066916;28;20021;-78
2021/05/20 12:37:50;;;;;;;2.55;1.10;;;16.30;93.10;;;;;;5037782;28;20037;-76
2021/05/20 12:40:30;;;;;;;7.68;1.80;;;16.40;92.70;;;;;;5049439;28;20435;-77
2021/05/20 12:43:12;;;;;;;1.95;1.10;;;16.50;92.70;;;;;;5049917;28;20119;-77
2021/05/20 12:45:44;;;;;;;3.65;1.55;;;16.60;92.10;;;;;;5054305;28;20062;-76
2021/05/20 12:48:24;;;;;;;2.20;1.30;;;16.60;92.40;;;;;;5064791;28;20040;-77
2021/05/20 12:50:50;;;;;;;4.60;1.80;;;16.60;93.10;;;;;;5060768;28;20480;-76
2021/05/20 12:53:30;;;;;;;4.32;2.10;;;16.60;92.70;;;;;;5069246;28;20047;-76
2021/05/20 12:55:59;;;;;;;8.65;2.15;;;16.70;91.70;;;;;;5061107;28;20059;-75
2021/05/20 12:58:51;;;;;;;5.43;2.30;;;16.80;92.10;;;;;;5055102;28;20033;-80
2021/05/20 13:01:24;;;;;;;5.68;2.50;;;16.80;92.30;;;;;;5065640;28;20039;-80
2021/05/20 13:03:56;;;;;;;6.13;2.90;;;17.00;92.50;;;;;;5087296;28;20037;-80
2021/05/20 13:06:29;;;;;;;4.13;2.50;;;17.00;91.40;;;;;;5061916;28;20439;-80